createdAt,value
2019-02-17T00:02:21.607Z,33.77
2019-02-17T00:04:49.883Z,35.70
2019-02-17T00:07:17.901Z,34.30
2019-02-17T00:09:47.104Z,35.30
2019-02-17T00:12:28.250Z,37.23
2019-02-17T00:14:55.888Z,35.07
2019-02-17T00:17:24.368Z,35.13
2019-02-17T00:19:52.849Z,39.27
2019-02-17T00:22:21.329Z,41.20
2019-02-17T00:24:49.608Z,39.17
2019-02-17T00:27:18.087Z,32.70
2019-02-17T00:29:46.568Z,36.83
2019-02-17T00:32:15.050Z,51.00
2019-02-17T00:34:43.528Z,45.23
2019-02-17T00:37:12.010Z,53.77
2019-02-17T00:39:40.488Z,54.23
2019-02-17T00:42:08.561Z,48.87
2019-02-17T00:44:36.835Z,58.80
2019-02-17T00:47:05.111Z,53.93
2019-02-17T00:49:33.386Z,50.33
2019-02-17T00:52:01.663Z,91.27
2019-02-17T00:54:29.676Z,72.47
2019-02-17T00:56:58.213Z,70.60
2019-02-17T00:59:26.696Z,70.97
2019-02-17T01:02:08.004Z,57.80
2019-02-17T01:04:35.537Z,53.97
2019-02-17T01:07:04.018Z,72.07
2019-02-17T01:09:33.522Z,90.23
2019-02-17T01:12:01.798Z,97.97
2019-02-17T01:14:30.074Z,66.53
2019-02-17T01:16:58.354Z,77.97
2019-02-17T01:19:26.422Z,45.33
2019-02-17T01:21:54.900Z,40.90
2019-02-17T01:24:42.772Z,45.10
2019-02-17T01:27:10.909Z,43.83
2019-02-17T01:29:38.980Z,36.67
2019-02-17T01:32:07.254Z,36.73
2019-02-17T01:34:35.734Z,39.23
2019-02-17T01:37:04.217Z,43.10
2019-02-17T01:39:32.700Z,46.50
2019-02-17T01:42:01.175Z,41.27
2019-02-17T01:44:29.657Z,40.73
2019-02-17T01:46:58.136Z,42.50
2019-02-17T01:49:26.619Z,49.37
2019-02-17T01:51:55.097Z,49.10
2019-02-17T01:54:23.577Z,41.73
2019-02-17T01:56:52.057Z,49.87
2019-02-17T01:59:30.171Z,42.03
2019-02-17T02:01:50.658Z,37.93
2019-02-17T02:04:18.934Z,39.17
2019-02-17T02:07:06.832Z,45.87
2019-02-17T02:09:34.940Z,37.93
2019-02-17T02:12:03.421Z,40.67
2019-02-17T02:14:31.903Z,38.70
2019-02-17T02:17:00.391Z,38.00
2019-02-17T02:19:28.452Z,39.87
2019-02-17T02:21:56.947Z,40.00
2019-02-17T02:24:44.787Z,40.23
2019-02-17T02:27:12.800Z,43.27
2019-02-17T02:29:41.550Z,41.03
2019-02-17T02:32:09.698Z,41.07
2019-02-17T02:34:39.200Z,41.27
2019-02-17T02:37:07.681Z,37.80
2019-02-17T02:39:35.974Z,41.07
2019-02-17T02:42:04.231Z,40.47
2019-02-17T02:44:32.510Z,41.33
2019-02-17T02:47:00.783Z,42.00
2019-02-17T02:49:29.265Z,41.67
2019-02-17T02:51:57.747Z,39.67
2019-02-17T02:54:25.824Z,39.17
2019-02-17T02:56:55.320Z,40.53
2019-02-17T02:59:23.801Z,44.43
2019-02-17T03:01:52.282Z,44.70
2019-02-17T03:04:20.760Z,43.77
2019-02-17T03:06:51.086Z,51.67
2019-02-17T03:09:19.363Z,45.13
2019-02-17T03:11:47.636Z,44.00
2019-02-17T03:14:16.116Z,40.70
2019-02-17T03:16:44.187Z,47.20
2019-02-17T03:19:12.257Z,59.63
2019-02-17T03:21:40.535Z,45.87
2019-02-17T03:24:08.604Z,46.67
2019-02-17T03:26:36.881Z,45.10
2019-02-17T03:29:05.156Z,48.77
2019-02-17T03:31:33.441Z,42.87
2019-02-17T03:34:04.987Z,44.47
2019-02-17T03:36:33.260Z,50.47
2019-02-17T03:39:01.535Z,50.03
2019-02-17T03:41:29.606Z,44.27
2019-02-17T03:43:57.882Z,48.50
2019-02-17T03:46:26.158Z,51.60
2019-02-17T03:48:54.642Z,51.80
2019-02-17T03:51:23.119Z,54.23
2019-02-17T03:53:51.599Z,51.00
2019-02-17T03:56:19.874Z,49.57
2019-02-17T03:58:48.359Z,53.37
2019-02-17T04:01:16.837Z,46.03
2019-02-17T04:03:45.318Z,43.87
2019-02-17T04:06:14.868Z,46.10
2019-02-17T04:08:43.101Z,43.83
2019-02-17T04:11:11.577Z,50.00
2019-02-17T04:13:39.852Z,46.10
2019-02-17T04:16:08.333Z,48.57
2019-02-17T04:18:36.609Z,49.47
2019-02-17T04:21:04.640Z,52.00
2019-02-17T04:23:32.757Z,49.53
2019-02-17T04:26:01.642Z,52.87
2019-02-17T04:28:29.714Z,51.00
2019-02-17T04:30:57.375Z,55.50
2019-02-17T04:33:38.878Z,46.47
2019-02-17T04:36:06.832Z,47.57
2019-02-17T04:38:34.287Z,49.60
2019-02-17T04:41:02.563Z,51.77
2019-02-17T04:43:31.041Z,51.93
2019-02-17T04:45:59.520Z,52.50
2019-02-17T04:48:40.806Z,51.67
2019-02-17T04:51:08.363Z,48.67
2019-02-17T04:53:36.431Z,61.07
2019-02-17T04:56:18.201Z,56.83
2019-02-17T04:58:45.681Z,55.30
2019-02-17T05:01:14.161Z,56.90
2019-02-17T05:03:42.437Z,55.73
2019-02-17T05:06:10.508Z,59.37
2019-02-17T05:08:38.987Z,62.03
2019-02-17T05:11:07.267Z,62.27
2019-02-17T05:13:35.756Z,57.53
2019-02-17T05:16:04.019Z,66.27
2019-02-17T05:18:32.319Z,61.73
2019-02-17T05:21:00.572Z,59.57
2019-02-17T05:23:28.846Z,61.80
2019-02-17T05:25:58.146Z,68.97
2019-02-17T05:28:26.637Z,53.77
2019-02-17T05:30:55.109Z,59.27
2019-02-17T05:33:22.973Z,68.23
2019-02-17T05:35:51.454Z,55.30
2019-02-17T05:38:19.935Z,56.17
2019-02-17T05:40:48.415Z,60.27
2019-02-17T05:43:16.895Z,75.47
2019-02-17T05:45:45.379Z,65.00
2019-02-17T05:48:13.857Z,60.13
2019-02-17T05:50:43.361Z,67.13
2019-02-17T05:53:13.077Z,71.00
2019-02-17T05:55:41.550Z,75.10
2019-02-17T05:58:09.826Z,75.53
2019-02-17T06:00:38.922Z,88.20
2019-02-17T06:03:06.996Z,82.47
2019-02-17T06:05:48.601Z,80.73
2019-02-17T06:08:16.241Z,72.90
2019-02-17T06:10:46.565Z,78.97
2019-02-17T06:13:14.841Z,77.37
2019-02-17T06:15:43.335Z,65.07
2019-02-17T06:18:11.244Z,63.10
2019-02-17T06:20:38.523Z,68.63
2019-02-17T06:23:05.947Z,65.23
2019-02-17T06:25:34.379Z,67.83
2019-02-17T06:28:02.496Z,76.00
2019-02-17T06:30:30.930Z,81.03
2019-02-17T06:32:59.204Z,84.10
2019-02-17T06:35:27.275Z,65.70
2019-02-17T06:37:55.755Z,65.70
2019-02-17T06:40:24.031Z,77.60
2019-02-17T06:42:52.309Z,83.40
2019-02-17T06:45:20.044Z,88.77
2019-02-17T06:47:47.229Z,112.17
2019-02-17T06:50:14.486Z,82.40
2019-02-17T06:52:41.642Z,95.97
2019-02-17T06:55:10.727Z,91.83
2019-02-17T06:57:40.117Z,95.30
2019-02-17T07:00:17.200Z,99.53
2019-02-17T07:02:46.499Z,79.97
2019-02-17T07:05:28.503Z,70.90
2019-02-17T07:07:56.772Z,78.20
2019-02-17T07:10:25.049Z,66.53
2019-02-17T07:12:53.324Z,69.23
2019-02-17T07:15:21.807Z,71.63
2019-02-17T07:17:50.284Z,71.27
2019-02-17T07:20:18.768Z,61.93
2019-02-17T07:22:47.044Z,59.77
2019-02-17T07:25:15.122Z,63.10
2019-02-17T07:27:43.594Z,56.30
2019-02-17T07:30:25.005Z,59.17
2019-02-17T07:32:52.636Z,58.10
2019-02-17T07:35:21.118Z,81.07
2019-02-17T07:37:50.622Z,65.33
2019-02-17T07:40:18.908Z,61.37
2019-02-17T07:42:48.632Z,59.77
2019-02-17T07:45:17.091Z,62.67
2019-02-17T07:47:46.593Z,69.47
2019-02-17T07:50:16.097Z,59.97
2019-02-17T07:52:44.577Z,58.47
2019-02-17T07:55:13.058Z,52.13
2019-02-17T07:57:41.949Z,65.03
2019-02-17T08:00:11.253Z,62.87
2019-02-17T08:02:38.908Z,60.80
2019-02-17T08:05:07.471Z,49.30
2019-02-17T08:07:35.255Z,66.03
2019-02-17T08:10:08.242Z,77.20
2019-02-17T08:12:36.723Z,87.33
2019-02-17T08:15:07.396Z,83.87
2019-02-17T08:17:35.118Z,70.70
2019-02-17T08:20:16.075Z,59.20
2019-02-17T08:22:43.367Z,61.25
2019-02-17T08:25:21.511Z,61.20
2019-02-17T08:27:41.736Z,58.25
2019-02-17T08:30:11.846Z,61.13
2019-02-17T08:32:39.518Z,49.00
2019-02-17T08:35:07.794Z,57.45
2019-02-17T08:37:36.068Z,49.90
2019-02-17T08:40:06.873Z,42.23
2019-02-17T08:42:34.466Z,52.85
2019-02-17T08:45:09.702Z,50.45
2019-02-17T08:47:38.183Z,51.42
2019-02-17T08:50:10.809Z,47.15
2019-02-17T08:52:38.419Z,53.28
2019-02-17T08:55:09.000Z,59.27
2019-02-17T08:57:38.046Z,50.78
2019-02-17T09:00:12.909Z,48.25
2019-02-17T09:02:40.843Z,53.00
2019-02-17T09:05:08.813Z,50.20
2019-02-17T09:07:37.299Z,53.83
2019-02-17T09:10:09.049Z,40.80
2019-02-17T09:12:37.120Z,52.85
2019-02-17T09:15:08.672Z,46.50
2019-02-17T09:17:36.743Z,52.15
2019-02-17T09:20:08.032Z,48.78
2019-02-17T09:22:35.956Z,52.25
2019-02-17T09:25:06.870Z,45.30
2019-02-17T09:27:34.556Z,46.15
2019-02-17T09:30:03.973Z,47.33
2019-02-17T09:32:31.723Z,44.05
2019-02-17T09:34:59.997Z,51.98
2019-02-17T09:37:28.272Z,47.83
2019-02-17T09:39:56.554Z,51.68
2019-02-17T09:42:24.824Z,44.00
2019-02-17T09:44:52.895Z,52.48
2019-02-17T09:47:21.375Z,52.88
2019-02-17T09:49:49.651Z,65.30
2019-02-17T09:52:17.517Z,58.35
2019-02-17T09:55:06.101Z,69.42
2019-02-17T09:57:33.730Z,66.80
2019-02-17T10:00:03.056Z,57.15
2019-02-17T10:02:31.100Z,52.78
2019-02-17T10:05:00.627Z,60.92
2019-02-17T10:07:28.010Z,64.50
2019-02-17T10:09:56.132Z,53.42
2019-02-17T10:12:24.818Z,50.25
2019-02-17T10:14:53.300Z,54.55
2019-02-17T10:17:21.575Z,47.88
2019-02-17T10:19:49.856Z,44.55
2019-02-17T10:22:18.128Z,49.18
2019-02-17T10:24:46.401Z,43.00
2019-02-17T10:27:14.678Z,51.25
2019-02-17T10:29:42.702Z,42.00
2019-02-17T10:32:10.873Z,43.38
2019-02-17T10:34:39.307Z,47.38
2019-02-17T10:37:07.575Z,44.50
2019-02-17T10:39:35.851Z,37.40
2019-02-17T10:42:04.331Z,42.03
2019-02-17T10:44:32.813Z,47.27
2019-02-17T10:47:01.293Z,34.53
2019-02-17T10:49:29.363Z,48.13
2019-02-17T10:51:57.639Z,43.58
2019-02-17T10:54:25.921Z,49.25
2019-02-17T10:56:54.250Z,45.33
2019-02-17T10:59:22.466Z,37.75
2019-02-17T11:01:50.742Z,36.40
2019-02-17T11:04:19.019Z,42.38
2019-02-17T11:06:47.293Z,32.45
2019-02-17T11:09:20.945Z,36.55
2019-02-17T11:12:02.050Z,34.27
2019-02-17T11:14:29.733Z,45.67
2019-02-17T11:16:59.238Z,41.15
2019-02-17T11:19:27.514Z,37.38
2019-02-17T11:21:55.584Z,34.00
2019-02-17T11:24:23.860Z,33.78
2019-02-17T11:26:52.136Z,59.27
2019-02-17T11:29:20.618Z,57.65
2019-02-17T11:31:49.108Z,49.60
2019-02-17T11:34:17.373Z,45.48
2019-02-17T11:36:45.853Z,52.15
2019-02-17T11:39:16.177Z,40.75
2019-02-17T11:41:44.453Z,35.35
2019-02-17T11:44:12.783Z,31.93
2019-02-17T11:46:41.005Z,42.95
2019-02-17T11:49:09.280Z,32.45
2019-02-17T11:51:37.760Z,25.35
2019-02-17T11:54:06.241Z,25.75
2019-02-17T11:56:34.721Z,21.57
2019-02-17T11:59:03.202Z,22.17
2019-02-17T12:01:31.684Z,30.60
2019-02-17T12:03:59.960Z,23.12
2019-02-17T12:06:28.234Z,31.90
2019-02-17T12:08:56.717Z,20.75
2019-02-17T12:11:25.195Z,27.20
2019-02-17T12:13:53.676Z,20.97
2019-02-17T12:16:22.156Z,25.70
2019-02-17T12:18:50.637Z,33.30
2019-02-17T12:21:26.901Z,24.10
2019-02-17T12:24:10.946Z,25.90
2019-02-17T12:26:43.317Z,30.80
2019-02-17T12:29:13.231Z,28.85
2019-02-17T12:31:41.507Z,30.77
2019-02-17T12:34:09.988Z,29.25
2019-02-17T12:36:38.468Z,28.85
2019-02-17T12:39:08.167Z,32.00
2019-02-17T12:41:35.842Z,28.47
2019-02-17T12:44:04.118Z,38.28
2019-02-17T12:46:32.390Z,41.83
2019-02-17T12:49:13.970Z,34.25
2019-02-17T12:51:41.640Z,40.78
2019-02-17T12:54:09.916Z,31.57
2019-02-17T12:56:38.192Z,32.70
2019-02-17T12:59:06.466Z,30.10
2019-02-17T13:01:34.950Z,38.15
2019-02-17T13:04:03.433Z,29.70
2019-02-17T13:06:31.908Z,28.35
2019-02-17T13:09:00.185Z,37.98
2019-02-17T13:11:28.459Z,45.95
2019-02-17T13:13:56.735Z,35.55
2019-02-17T13:16:25.215Z,44.67
2019-02-17T13:18:53.695Z,31.65
2019-02-17T13:21:21.768Z,36.20
2019-02-17T13:23:50.247Z,41.03
2019-02-17T13:26:18.727Z,34.53
2019-02-17T13:28:47.209Z,30.62
2019-02-17T13:31:15.226Z,37.45
2019-02-17T13:33:43.556Z,38.73
2019-02-17T13:36:12.036Z,34.35
2019-02-17T13:38:40.322Z,35.78
2019-02-17T13:41:08.791Z,36.70
2019-02-17T13:43:50.210Z,32.85
2019-02-17T13:46:17.836Z,41.27
2019-02-17T13:48:46.316Z,32.03
2019-02-17T13:51:14.801Z,36.70
2019-02-17T13:53:43.095Z,44.40
2019-02-17T13:56:10.944Z,36.30
2019-02-17T13:58:39.215Z,29.00
2019-02-17T14:01:07.490Z,35.93
2019-02-17T14:03:35.766Z,38.33
2019-02-17T14:06:03.837Z,40.03
2019-02-17T14:08:32.727Z,43.27
2019-02-17T14:11:00.392Z,49.47
2019-02-17T14:13:28.869Z,43.15
2019-02-17T14:15:57.350Z,46.87
2019-02-17T14:18:25.625Z,43.17
2019-02-17T14:20:53.900Z,36.42
2019-02-17T14:23:21.975Z,37.30
2019-02-17T14:25:50.248Z,47.93
2019-02-17T14:28:18.524Z,32.17
2019-02-17T14:30:46.799Z,39.78
2019-02-17T14:33:15.075Z,31.75
2019-02-17T14:35:43.562Z,29.50
2019-02-17T14:38:12.036Z,62.10
2019-02-17T14:40:40.516Z,44.70
2019-02-17T14:43:08.997Z,28.10
2019-02-17T14:45:37.273Z,31.13
2019-02-17T14:48:05.755Z,27.83
2019-02-17T14:50:33.825Z,29.30
2019-02-17T14:53:01.690Z,34.80
2019-02-17T14:55:29.764Z,25.00
2019-02-17T14:58:04.915Z,33.78
2019-02-17T15:00:28.176Z,35.97
2019-02-17T15:02:56.431Z,33.97
2019-02-17T15:05:24.298Z,38.60
2019-02-17T15:07:52.778Z,35.98
2019-02-17T15:10:21.259Z,31.13
2019-02-17T15:12:49.745Z,23.67
2019-02-17T15:15:18.015Z,30.03
2019-02-17T15:17:46.495Z,27.80
2019-02-17T15:20:23.525Z,26.47
2019-02-17T15:22:52.765Z,26.27
2019-02-17T15:25:20.539Z,24.10
2019-02-17T15:27:49.021Z,27.43
2019-02-17T15:30:17.981Z,26.00
2019-02-17T15:32:45.781Z,27.17
2019-02-17T15:35:14.256Z,31.43
2019-02-17T15:37:42.737Z,22.10
2019-02-17T15:40:14.105Z,23.47
2019-02-17T15:42:43.224Z,30.00
2019-02-17T15:45:12.705Z,35.87
2019-02-17T15:47:40.550Z,30.43
2019-02-17T15:50:10.260Z,31.40
2019-02-17T15:52:37.920Z,27.57
2019-02-17T15:55:09.271Z,27.23
2019-02-17T15:57:36.724Z,30.13
2019-02-17T16:00:08.482Z,29.27
2019-02-17T16:02:36.553Z,47.40
2019-02-17T16:05:06.264Z,45.27
2019-02-17T16:07:33.926Z,48.13
2019-02-17T16:10:03.938Z,47.90
2019-02-17T16:12:31.909Z,44.03
2019-02-17T16:15:00.035Z,38.53
2019-02-17T16:17:28.463Z,40.00
2019-02-17T16:19:57.145Z,41.63
2019-02-17T16:22:25.140Z,42.40
2019-02-17T16:24:52.400Z,49.13
2019-02-17T16:27:19.796Z,48.33
2019-02-17T16:29:47.196Z,49.20
2019-02-17T16:32:14.480Z,55.73
2019-02-17T16:34:41.746Z,47.07
2019-02-17T16:37:09.229Z,51.93
2019-02-17T16:39:36.774Z,60.57
2019-02-17T16:42:04.156Z,46.20
2019-02-17T16:44:31.432Z,56.57
2019-02-17T16:46:58.735Z,61.03
2019-02-17T16:49:26.016Z,70.83
2019-02-17T16:51:53.327Z,61.33
2019-02-17T16:54:20.659Z,81.57
2019-02-17T16:56:48.097Z,63.63
2019-02-17T16:59:15.484Z,76.40
2019-02-17T17:01:42.755Z,74.83
2019-02-17T17:04:10.082Z,71.43
2019-02-17T17:06:37.264Z,68.77
2019-02-17T17:09:04.621Z,85.30
2019-02-17T17:11:31.919Z,95.50
2019-02-17T17:13:59.224Z,83.90
2019-02-17T17:16:26.598Z,93.47
2019-02-17T17:18:53.853Z,112.00
2019-02-17T17:21:21.157Z,118.03
2019-02-17T17:23:48.516Z,93.07
2019-02-17T17:26:15.820Z,88.77
2019-02-17T17:28:43.168Z,76.40
2019-02-17T17:31:10.491Z,88.23
2019-02-17T17:33:37.745Z,139.40
2019-02-17T17:36:05.075Z,89.67
2019-02-17T17:38:32.297Z,95.33
2019-02-17T17:40:59.665Z,98.40
2019-02-17T17:43:26.957Z,145.47
2019-02-17T17:45:54.313Z,182.07
2019-02-17T17:48:21.509Z,132.87
2019-02-17T17:50:48.908Z,75.93
2019-02-17T17:53:16.181Z,66.33
2019-02-17T17:55:43.543Z,56.47
2019-02-17T17:58:10.829Z,55.17
2019-02-17T18:00:39.351Z,53.63
2019-02-17T18:03:06.900Z,54.03
2019-02-17T18:05:34.201Z,54.00
2019-02-17T18:08:01.438Z,61.13
2019-02-17T18:10:30.619Z,78.93
2019-02-17T18:12:59.915Z,95.87
2019-02-17T18:15:27.224Z,72.67
2019-02-17T18:17:55.124Z,64.27
2019-02-17T18:20:22.589Z,72.33
2019-02-17T18:22:49.863Z,81.27
2019-02-17T18:25:17.063Z,88.47
2019-02-17T18:27:44.317Z,85.13
2019-02-17T18:30:16.930Z,79.13
2019-02-17T18:32:44.136Z,88.00
2019-02-17T18:35:19.244Z,94.90
2019-02-17T18:37:41.302Z,108.73
2019-02-17T18:40:12.753Z,103.17
2019-02-17T18:42:40.028Z,100.10
2019-02-17T18:45:14.701Z,110.67
2019-02-17T18:47:41.864Z,137.03
2019-02-17T18:50:10.984Z,121.93
2019-02-17T18:52:38.296Z,105.40
2019-02-17T18:55:07.148Z,118.67
2019-02-17T18:57:34.559Z,106.30
2019-02-17T19:00:03.231Z,112.83
2019-02-17T19:02:30.597Z,127.47
2019-02-17T19:04:57.941Z,130.30
2019-02-17T19:07:25.193Z,146.80
2019-02-17T19:09:52.871Z,137.67
2019-02-17T19:12:20.232Z,145.43
2019-02-17T19:14:47.625Z,151.30
2019-02-17T19:17:14.906Z,152.83
2019-02-17T19:19:42.567Z,153.50
2019-02-17T19:22:10.637Z,162.37
2019-02-17T19:24:38.920Z,146.80
2019-02-17T19:27:08.624Z,148.13
2019-02-17T19:29:36.693Z,150.07
2019-02-17T19:32:04.973Z,158.43
2019-02-17T19:34:34.420Z,155.30
2019-02-17T19:37:02.954Z,145.37
2019-02-17T19:39:31.027Z,148.13
2019-02-17T19:41:59.101Z,158.57
2019-02-17T19:44:27.578Z,137.13
2019-02-17T19:46:55.654Z,146.43
2019-02-17T19:49:23.924Z,129.10
2019-02-17T19:51:52.254Z,153.57
2019-02-17T19:54:20.479Z,142.40
2019-02-17T19:56:48.711Z,151.53
2019-02-17T19:59:17.436Z,136.00
2019-02-17T20:01:45.097Z,130.20
2019-02-17T20:04:15.035Z,135.70
2019-02-17T20:06:43.084Z,150.20
2019-02-17T20:09:15.308Z,152.07
2019-02-17T20:11:42.296Z,149.37
2019-02-17T20:14:10.674Z,142.50
2019-02-17T20:16:38.643Z,145.33
2019-02-17T20:19:06.713Z,165.13
2019-02-17T20:21:34.989Z,192.33
2019-02-17T20:24:03.061Z,152.17
2019-02-17T20:26:31.541Z,163.63
2019-02-17T20:28:59.818Z,181.80
2019-02-17T20:31:28.155Z,245.87
2019-02-17T20:33:56.372Z,168.63
2019-02-17T20:36:24.443Z,268.87
2019-02-17T20:39:05.164Z,172.97
2019-02-17T20:41:32.668Z,213.40
2019-02-17T20:44:00.785Z,158.33
2019-02-17T20:46:29.013Z,285.90
2019-02-17T20:48:57.083Z,388.10
2019-02-17T20:51:25.359Z,374.13
2019-02-17T20:53:54.247Z,410.30
2019-02-17T20:56:21.911Z,422.57
2019-02-17T20:58:50.393Z,436.93
2019-02-17T21:01:18.461Z,341.37
2019-02-17T21:03:46.736Z,416.70
2019-02-17T21:06:14.603Z,391.40
2019-02-17T21:08:43.083Z,377.00
2019-02-17T21:11:11.566Z,370.77
2019-02-17T21:13:40.045Z,429.47
2019-02-17T21:16:08.935Z,419.83
2019-02-17T21:18:36.801Z,426.17
2019-02-17T21:21:05.076Z,364.47
2019-02-17T21:23:33.351Z,377.03
2019-02-17T21:26:01.629Z,345.73
2019-02-17T21:28:29.903Z,394.53
2019-02-17T21:30:58.180Z,370.47
2019-02-17T21:33:26.455Z,359.83
2019-02-17T21:35:54.731Z,371.97
2019-02-17T21:38:22.664Z,401.13
2019-02-17T21:40:50.462Z,417.73
2019-02-17T21:43:18.330Z,400.70
2019-02-17T21:45:46.809Z,370.33
2019-02-17T21:48:16.315Z,376.37
2019-02-17T21:50:44.593Z,312.67
2019-02-17T21:53:20.409Z,333.77
2019-02-17T21:55:42.784Z,404.63
2019-02-17T21:58:11.261Z,326.20
2019-02-17T22:00:39.741Z,398.43
2019-02-17T22:03:08.221Z,421.67
2019-02-17T22:05:36.291Z,421.17
2019-02-17T22:08:04.369Z,342.63
2019-02-17T22:10:32.229Z,395.87
2019-02-17T22:13:00.504Z,380.90
2019-02-17T22:15:28.985Z,402.57
2019-02-17T22:17:57.468Z,392.27
2019-02-17T22:20:25.952Z,314.67
2019-02-17T22:22:54.429Z,372.50
2019-02-17T22:25:22.907Z,288.70
2019-02-17T22:27:51.253Z,317.03
2019-02-17T22:30:19.412Z,387.43
2019-02-17T22:32:47.739Z,334.87
2019-02-17T22:35:16.010Z,364.10
2019-02-17T22:37:44.081Z,369.23
2019-02-17T22:40:12.989Z,321.03
2019-02-17T22:42:40.428Z,341.80
2019-02-17T22:45:10.136Z,373.20
2019-02-17T22:47:37.800Z,401.97
2019-02-17T22:50:11.810Z,411.90
2019-02-17T22:52:40.086Z,407.80
2019-02-17T22:55:11.022Z,347.07
2019-02-17T22:57:38.686Z,437.20
2019-02-17T23:00:47.510Z,386.77
2019-02-17T23:03:15.990Z,424.37
2019-02-17T23:05:47.953Z,402.43
2019-02-17T23:08:16.229Z,381.07
2019-02-17T23:10:44.299Z,358.27
2019-02-17T23:13:12.175Z,349.80
2019-02-17T23:15:40.441Z,318.77
2019-02-17T23:18:08.923Z,336.33
2019-02-17T23:20:37.402Z,330.70
2019-02-17T23:23:05.677Z,276.83
2019-02-17T23:25:33.953Z,274.37
2019-02-17T23:28:02.229Z,246.90
2019-02-17T23:30:30.566Z,274.10
2019-02-17T23:32:58.576Z,242.77
2019-02-17T23:35:26.851Z,274.47
2019-02-17T23:37:56.563Z,396.33
2019-02-17T23:40:25.042Z,394.17
2019-02-17T23:42:53.522Z,312.00
2019-02-17T23:45:21.593Z,287.63
2019-02-17T23:47:49.664Z,265.63
2019-02-17T23:50:17.735Z,252.87
2019-02-17T23:52:45.805Z,251.80
2019-02-17T23:55:14.084Z,260.60
2019-02-17T23:57:42.356Z,261.97
